Choibalsan, Mongolia
Current Conditions -  °F | °C
As of 2:00 AM on Saturday 01 Nov 2014 (Local Time) from UIAA Reporting Station
Clear Clear  
Wind Chill: -2°   Ceiling: Unl
Heat Index:   Visibility: 6mi
Dew Point:   Wind: 4mph
Humidity: 92%   Direction: NA
Pressure: 30"   Gusts: NA
Location:  48.06°N, 114.51°E
Report Text: UIAA 311800Z VRB02MPS 9999 SKC M14/M15 Q1016 NOSIG RMK QFE70329CLRD70
Loading
Personal Weather Stations






























Interactive Weather Map
Tropical Storm Tracking
New forecast layout! Learn more

10-Day Weather Forecast

Advertisements
Track Severe Weather on mobile